Time;durP1;ratioP1;P1;durP2;ratioP2;P2;SDS_P1;SDS_P2;PMS_P1;PMS_P2;Temp;Humidity;BMP_temperature;BMP_pressure;BME280_temperature;BME280_humidity;BME280_pressure;Samples;Min_cycle;Max_cycle;Signal;HPM_P1;HPM_P2
2021/12/31 00:01:28;;;;;;;31.65;12.07;;;;;;;-4.04;68.87;99865.09;6045316;23;20019;-79
2021/12/31 00:03:55;;;;;;;30.20;12.40;;;;;;;-4.09;68.66;99861.47;6069628;23;20019;-79
2021/12/31 00:06:21;;;;;;;31.05;12.68;;;;;;;-4.34;68.76;99827.16;6020903;23;20038;-80
2021/12/31 00:08:47;;;;;;;27.70;12.48;;;;;;;-4.16;68.96;99859.41;6070591;23;20015;-80
2021/12/31 00:11:13;;;;;;;30.42;12.60;;;;;;;-4.36;69.18;99825.31;6044590;23;20405;-77
2021/12/31 00:13:39;;;;;;;37.10;13.50;;;;;;;-4.32;68.86;99848.44;6070491;23;20023;-80
2021/12/31 00:16:05;;;;;;;35.47;12.98;;;;;;;-4.31;69.13;99829.88;6044664;23;20063;-78
2021/12/31 00:18:31;;;;;;;33.13;13.55;;;;;;;-4.22;68.97;99854.88;6073003;23;20023;-77
2021/12/31 00:20:57;;;;;;;29.10;12.60;;;;;;;-4.43;69.26;99813.97;6083251;23;20071;-78
2021/12/31 00:23:25;;;;;;;27.70;11.90;;;;;;;-4.31;68.85;99837.50;6060777;23;20034;-78
2021/12/31 00:25:52;;;;;;;35.83;12.93;;;;;;;-4.55;69.25;99816.75;6082167;23;20050;-78
2021/12/31 00:28:19;;;;;;;31.48;12.88;;;;;;;-4.58;69.16;99816.59;6025323;23;20022;-80
2021/12/31 00:30:51;;;;;;;30.27;13.00;;;;;;;-4.55;69.53;99825.28;6047505;23;20022;-79
2021/12/31 00:33:17;;;;;;;;;;;;;;;-4.43;69.19;99847.91;6074146;23;20495;-77
2021/12/31 00:35:44;;;;;;;35.30;13.18;;;;;;;-4.43;68.68;99837.72;6084839;23;19949;-79
2021/12/31 00:38:09;;;;;;;30.08;12.13;;;;;;;-4.41;69.05;99833.56;6086888;23;20027;-79
2021/12/31 00:40:36;;;;;;;29.00;11.65;;;;;;;-4.29;69.69;99828.25;6062243;23;20019;-77
2021/12/31 00:43:02;;;;;;;29.92;12.15;;;;;;;-4.15;69.02;99831.50;6063395;23;20113;-77
2021/12/31 00:45:28;;;;;;;31.38;12.50;;;;;;;-4.20;69.66;99817.72;6089175;23;20018;-78
2021/12/31 00:47:54;;;;;;;29.00;12.05;;;;;;;-4.15;69.43;99817.94;6078056;23;20038;-81
2021/12/31 00:50:20;;;;;;;31.00;12.50;;;;;;;-4.16;68.80;99800.94;6050924;23;20030;-77
2021/12/31 00:52:46;;;;;;;33.58;13.35;;;;;;;-4.04;69.63;99813.38;6087927;23;20018;-77
2021/12/31 00:55:13;;;;;;;38.45;13.50;;;;;;;-4.11;68.87;99794.41;6083512;23;20068;-79
2021/12/31 00:57:40;;;;;;;30.88;12.43;;;;;;;-4.19;68.76;99800.78;6071421;23;20034;-78
2021/12/31 01:00:08;;;;;;;28.15;11.93;;;;;;;-4.18;69.46;99807.59;6045325;23;20019;-78
2021/12/31 01:02:34;;;;;;;34.03;13.35;;;;;;;-4.35;69.60;99774.59;6071865;23;20054;-78
2021/12/31 01:05:00;;;;;;;37.67;13.80;;;;;;;-3.92;70.13;99808.03;6069654;23;20066;-77
2021/12/31 01:07:27;;;;;;;32.58;13.50;;;;;;;-3.74;69.84;99808.94;6045461;23;20022;-79
2021/12/31 01:09:55;;;;;;;29.25;12.57;;;;;;;-3.72;68.74;99799.72;6045915;23;20018;-78
2021/12/31 01:12:21;;;;;;;29.63;13.30;;;;;;;-3.74;69.20;99805.50;6045730;23;20030;-78
2021/12/31 01:15:49;;;;;;;34.70;13.23;;;;;;;-3.84;69.15;99806.72;6045302;23;20026;-78
2021/12/31 01:20:09;;;;;;;29.70;12.90;;;;;;;-3.98;69.64;99771.34;6069594;23;20023;-78
2021/12/31 01:22:35;;;;;;;28.95;12.07;;;;;;;-3.82;69.36;99790.78;6070508;23;20022;-78
2021/12/31 01:25:04;;;;;;;32.55;12.43;;;;;;;-3.89;69.47;99780.22;6023510;23;20318;-78
2021/12/31 01:27:30;;;;;;;33.97;12.13;;;;;;;-3.92;69.20;99765.66;6048253;23;20019;-78
2021/12/31 01:29:56;;;;;;;33.13;12.18;;;;;;;-3.71;69.49;99793.84;6044917;23;20436;-80
2021/12/31 01:32:23;;;;;;;27.50;11.95;;;;;;;-3.68;69.02;99788.91;6070257;23;20042;-78
2021/12/31 01:34:50;;;;;;;33.78;13.05;;;;;;;-3.68;68.86;99793.97;6039796;23;20023;-79
2021/12/31 01:37:16;;;;;;;30.75;12.93;;;;;;;-3.78;69.20;99772.31;6042075;23;20078;-77
2021/12/31 01:39:42;;;;;;;33.63;13.43;;;;;;;-3.70;69.27;99780.31;6040336;23;20433;-79
2021/12/31 01:42:15;;;;;;;30.67;12.07;;;;;;;-3.83;68.58;99780.50;6040231;23;20069;-79
2021/12/31 01:44:45;;;;;;;31.08;13.25;;;;;;;-3.87;69.03;99776.94;6042604;23;20034;-79
2021/12/31 01:47:15;;;;;;;32.88;12.93;;;;;;;-3.79;68.99;99779.84;6042048;23;20484;-79
2021/12/31 01:49:55;;;;;;;29.52;11.80;;;;;;;-3.80;69.20;99760.31;6064102;23;20019;-79
2021/12/31 01:52:21;;;;;;;29.08;12.35;;;;;;;-3.61;69.56;99772.25;6042215;23;20071;-78
2021/12/31 01:54:47;;;;;;;27.23;11.48;;;;;;;-3.78;68.38;99754.53;6040635;23;20407;-81
2021/12/31 01:57:13;;;;;;;30.25;11.73;;;;;;;-4.02;68.91;99733.84;6042325;23;20019;-78
2021/12/31 01:59:40;;;;;;;26.48;11.95;;;;;;;-3.89;69.18;99758.19;6044361;23;20068;-78
2021/12/31 02:02:08;;;;;;;30.30;12.30;;;;;;;-3.99;69.03;99748.41;6057868;23;20036;-79
2021/12/31 02:04:38;;;;;;;31.40;11.38;;;;;;;-3.82;69.35;99767.00;6046951;23;20019;-77
2021/12/31 02:07:05;;;;;;;31.55;12.25;;;;;;;-3.80;68.98;99760.31;6041445;23;20025;-76
2021/12/31 02:09:35;;;;;;;30.92;11.98;;;;;;;-4.03;69.36;99716.00;6062826;23;20015;-77
2021/12/31 02:12:01;;;;;;;31.60;13.27;;;;;;;-3.76;69.28;99752.03;6062280;23;20023;-78
2021/12/31 02:14:28;;;;;;;30.50;11.88;;;;;;;-3.73;69.18;99747.09;6038898;23;20488;-78
2021/12/31 02:16:54;;;;;;;28.38;11.70;;;;;;;-3.68;69.19;99750.75;6015313;23;20070;-78
2021/12/31 02:19:27;;;;;;;26.95;11.23;;;;;;;-3.98;68.40;99705.22;6040813;23;20413;-81
2021/12/31 02:21:56;;;;;;;29.35;12.70;;;;;;;-3.74;68.83;99725.00;6042250;23;20101;-80
2021/12/31 02:24:22;;;;;;;28.15;11.73;;;;;;;-3.77;69.13;99714.69;6040205;23;20095;-78
2021/12/31 02:26:50;;;;;;;31.05;13.38;;;;;;;-3.79;69.00;99721.38;6064305;23;20053;-78
2021/12/31 02:29:16;;;;;;;28.90;11.55;;;;;;;-4.08;68.90;99685.25;6041128;23;20102;-77
2021/12/31 02:31:42;;;;;;;28.40;11.80;;;;;;;-4.07;69.21;99707.31;6039732;23;20019;-78
2021/12/31 02:34:08;;;;;;;26.63;11.95;;;;;;;-3.95;69.12;99718.09;6041606;23;20023;-81
2021/12/31 02:36:34;;;;;;;29.15;11.85;;;;;;;-3.89;69.04;99730.22;6043950;23;20026;-80
2021/12/31 02:39:00;;;;;;;31.35;12.50;;;;;;;-3.99;69.07;99716.19;6044046;23;20022;-78
2021/12/31 02:41:26;;;;;;;25.38;11.60;;;;;;;-3.92;69.09;99721.59;6069857;23;20014;-79
2021/12/31 02:43:52;;;;;;;29.08;11.63;;;;;;;-3.94;68.51;99724.03;6069697;23;20029;-79
2021/12/31 02:46:18;;;;;;;26.02;11.02;;;;;;;-3.99;68.05;99713.66;6071788;23;20046;-79
2021/12/31 02:48:44;;;;;;;31.25;11.63;;;;;;;-4.10;68.63;99710.59;6067422;23;20023;-81
2021/12/31 02:51:10;;;;;;;24.90;11.10;;;;;;;-4.12;69.07;99713.88;6070924;23;20029;-78
2021/12/31 02:53:40;;;;;;;26.98;11.00;;;;;;;-4.06;69.21;99710.75;6044474;23;20050;-80
2021/12/31 02:56:08;;;;;;;29.50;12.82;;;;;;;-4.11;69.32;99697.84;6021515;23;20121;-78
2021/12/31 02:58:35;;;;;;;30.27;11.43;;;;;;;-4.02;69.53;99693.16;6070294;23;20030;-81
2021/12/31 03:01:02;;;;;;;32.63;11.95;;;;;;;-3.97;68.63;99712.06;6069548;23;20361;-79
2021/12/31 03:03:28;;;;;;;32.08;12.93;;;;;;;-3.91;69.16;99703.00;6044037;23;20025;-80
2021/12/31 03:05:55;;;;;;;33.60;11.65;;;;;;;-3.87;69.45;99697.25;6044262;23;20084;-79
2021/12/31 03:08:27;;;;;;;30.30;12.00;;;;;;;-3.97;69.08;99679.00;6070900;23;20054;-79
2021/12/31 03:10:56;;;;;;;27.08;11.02;;;;;;;-4.07;68.27;99661.56;6087311;23;20075;-80
2021/12/31 03:13:23;;;;;;;29.90;11.57;;;;;;;-3.96;69.01;99675.66;6048607;23;20029;-78
2021/12/31 03:15:52;;;;;;;26.90;11.00;;;;;;;-4.05;68.38;99662.50;6043834;23;20015;-77
2021/12/31 03:18:19;;;;;;;25.98;11.10;;;;;;;-3.98;68.72;99689.97;6043514;23;20507;-80
2021/12/31 03:20:57;;;;;;;30.40;11.65;;;;;;;-4.02;69.52;99685.53;6043679;23;20401;-79
2021/12/31 03:23:29;;;;;;;25.05;11.20;;;;;;;-3.88;69.57;99682.81;6069512;23;20470;-82
2021/12/31 03:25:55;;;;;;;31.17;11.45;;;;;;;-3.73;69.68;99680.97;6070644;23;20042;-78
2021/12/31 03:28:20;;;;;;;26.60;11.02;;;;;;;-3.69;69.47;99666.72;6044277;23;20014;-78
2021/12/31 03:30:48;;;;;;;24.50;10.77;;;;;;;-3.66;69.07;99671.94;6069262;23;20019;-80
2021/12/31 03:33:15;;;;;;;23.15;10.38;;;;;;;-3.76;69.15;99665.56;6070538;23;20022;-79
2021/12/31 03:35:41;;;;;;;25.92;10.60;;;;;;;-3.90;68.63;99667.47;6021121;23;20029;-80
2021/12/31 03:38:07;;;;;;;25.70;10.85;;;;;;;-4.01;69.41;99654.25;6043995;23;20342;-78
2021/12/31 03:40:33;;;;;;;28.10;11.25;;;;;;;-3.80;69.70;99658.59;6020251;23;20094;-79
2021/12/31 03:42:59;;;;;;;31.90;11.00;;;;;;;-3.92;68.71;99632.59;6043982;23;20369;-77
2021/12/31 03:45:25;;;;;;;26.38;10.77;;;;;;;-3.90;69.02;99636.94;6071242;23;20035;-80
2021/12/31 03:47:51;;;;;;;28.52;11.57;;;;;;;-3.84;68.54;99654.16;6044397;23;20018;-77
2021/12/31 03:50:17;;;;;;;23.48;10.65;;;;;;;-4.05;68.81;99621.84;6048463;23;20041;-78
2021/12/31 03:52:43;;;;;;;23.35;9.82;;;;;;;-3.94;68.56;99658.81;6053169;23;20019;-79
2021/12/31 03:55:10;;;;;;;32.03;11.40;;;;;;;-4.36;69.20;99594.09;6044216;23;20023;-78
2021/12/31 03:57:37;;;;;;;27.77;11.27;;;;;;;-3.86;69.30;99655.78;6043236;23;20121;-77
2021/12/31 04:00:05;;;;;;;24.27;11.18;;;;;;;-3.83;69.47;99638.97;6068932;23;20018;-78
2021/12/31 04:02:34;;;;;;;28.30;10.32;;;;;;;-3.73;69.04;99639.38;5996737;23;20019;-78
2021/12/31 04:05:01;;;;;;;22.95;10.25;;;;;;;-3.78;68.65;99631.56;6043967;23;20019;-78
2021/12/31 04:07:26;;;;;;;20.75;9.45;;;;;;;-3.69;68.80;99649.78;6070343;23;20436;-79
2021/12/31 04:09:52;;;;;;;21.80;9.25;;;;;;;-4.03;69.13;99587.19;6066347;23;20014;-77
2021/12/31 04:12:19;;;;;;;22.67;10.48;;;;;;;-4.09;68.74;99586.94;5995913;23;20177;-77
2021/12/31 04:14:45;;;;;;;24.13;10.52;;;;;;;-3.79;68.73;99632.34;5995832;23;20018;-78
2021/12/31 04:17:11;;;;;;;25.25;11.38;;;;;;;-3.75;69.06;99624.06;5995386;23;20026;-78
2021/12/31 04:19:37;;;;;;;26.85;11.45;;;;;;;-3.81;68.92;99616.16;6035714;23;20046;-79
2021/12/31 04:22:04;;;;;;;28.27;11.60;;;;;;;-4.30;68.75;99549.53;6083166;23;20022;-78
2021/12/31 04:27:11;;;;;;;27.63;11.60;;;;;;;-3.99;69.33;99611.97;6043481;23;20022;-77
2021/12/31 04:29:37;;;;;;;27.83;11.20;;;;;;;-4.04;68.69;99603.25;6069069;23;20066;-77
2021/12/31 04:32:05;;;;;;;27.63;12.00;;;;;;;-3.87;69.46;99620.97;6068030;23;20019;-79
2021/12/31 04:34:32;;;;;;;23.33;10.50;;;;;;;-3.69;70.30;99616.72;6066608;23;20057;-79
2021/12/31 04:36:58;;;;;;;26.02;10.68;;;;;;;-3.83;68.95;99583.03;6068464;23;20014;-78
2021/12/31 04:39:24;;;;;;;28.42;11.68;;;;;;;-3.84;69.51;99605.84;6044530;23;20369;-79
2021/12/31 04:41:50;;;;;;;25.27;10.77;;;;;;;-4.00;68.17;99614.44;6069747;23;20046;-77
2021/12/31 04:44:15;;;;;;;23.63;11.00;;;;;;;-4.07;69.01;99623.44;6069961;23;20449;-77
2021/12/31 04:46:41;;;;;;;25.15;12.10;;;;;;;-4.08;69.57;99611.53;6069907;23;20023;-78
2021/12/31 04:49:07;;;;;;;27.65;11.10;;;;;;;-3.96;70.42;99590.88;6044160;23;20074;-78
2021/12/31 04:51:34;;;;;;;25.08;10.90;;;;;;;-3.97;69.47;99590.03;6069935;23;20019;-79
2021/12/31 04:54:01;;;;;;;26.08;10.73;;;;;;;-3.78;69.27;99624.81;6069714;23;20480;-79
2021/12/31 04:56:26;;;;;;;24.88;10.43;;;;;;;-3.80;69.70;99628.06;6044429;23;20537;-79
2021/12/31 04:58:53;;;;;;;29.08;11.18;;;;;;;-3.88;69.48;99609.06;6044541;23;20048;-79
2021/12/31 05:01:21;;;;;;;24.02;9.73;;;;;;;-3.88;69.84;99615.00;6044608;23;20364;-79
2021/12/31 05:03:47;;;;;;;27.48;10.13;;;;;;;-3.69;69.74;99631.09;6069870;23;20018;-77
2021/12/31 05:06:13;;;;;;;25.20;10.02;;;;;;;-3.71;69.57;99620.88;6070245;23;20018;-77
2021/12/31 05:08:39;;;;;;;23.98;10.05;;;;;;;-3.75;69.07;99616.44;6068677;23;20021;-78
2021/12/31 05:11:05;;;;;;;30.92;10.98;;;;;;;-4.27;68.81;99549.66;6070532;23;20172;-79
2021/12/31 05:13:31;;;;;;;28.92;10.65;;;;;;;-4.00;69.47;99601.75;6069077;23;20018;-78
2021/12/31 05:16:02;;;;;;;27.25;11.15;;;;;;;-3.80;69.82;99618.78;6070108;23;20416;-79
2021/12/31 05:18:28;;;;;;;25.03;11.00;;;;;;;-4.09;69.77;99548.81;6044540;23;20038;-78
2021/12/31 05:20:54;;;;;;;23.63;10.30;;;;;;;-3.96;69.73;99568.88;6068659;23;20025;-79
2021/12/31 05:23:19;;;;;;;25.80;10.75;;;;;;;-4.07;69.36;99564.97;6069145;23;20022;-77
2021/12/31 05:25:45;;;;;;;22.85;10.38;;;;;;;-3.80;69.50;99618.78;6070970;23;20113;-79
2021/12/31 05:28:11;;;;;;;28.85;9.95;;;;;;;-3.86;69.34;99595.59;6082582;23;20015;-78
2021/12/31 05:30:37;;;;;;;21.48;9.73;;;;;;;-3.77;69.58;99600.22;6085382;23;20023;-79
2021/12/31 05:33:03;;;;;;;24.00;10.30;;;;;;;-3.90;69.21;99586.09;6044849;23;20098;-78
2021/12/31 05:35:29;;;;;;;21.98;9.82;;;;;;;-3.87;69.27;99593.84;6069237;23;20046;-79
2021/12/31 05:37:55;;;;;;;25.58;10.10;;;;;;;-4.06;69.13;99558.22;6069900;23;20101;-79
2021/12/31 05:40:21;;;;;;;23.15;9.52;;;;;;;-3.90;69.05;99585.22;6070003;23;20025;-79
2021/12/31 05:42:46;;;;;;;24.85;10.13;;;;;;;-4.13;69.54;99550.31;6026121;23;20014;-79
2021/12/31 05:45:13;;;;;;;23.35;9.50;;;;;;;-3.95;68.98;99593.50;6045167;23;20018;-78
2021/12/31 05:47:39;;;;;;;26.67;10.32;;;;;;;-4.33;69.00;99533.28;6070148;23;20045;-77
2021/12/31 05:50:10;;;;;;;25.58;10.90;;;;;;;-3.96;69.81;99594.31;6070875;23;20081;-77
2021/12/31 05:52:36;;;;;;;26.75;10.52;;;;;;;-4.05;69.13;99562.50;6069360;23;20023;-80
2021/12/31 05:55:05;;;;;;;26.70;11.48;;;;;;;-3.92;69.23;99587.69;5998333;23;20019;-79
2021/12/31 05:57:30;;;;;;;25.42;12.00;;;;;;;-3.80;69.35;99582.28;6046337;23;20046;-79
2021/12/31 05:59:56;;;;;;;26.10;10.52;;;;;;;-3.92;69.45;99547.00;6070619;23;20145;-79
2021/12/31 06:02:23;;;;;;;25.08;10.20;;;;;;;-3.79;69.16;99574.75;6044615;23;20019;-78
2021/12/31 06:04:49;;;;;;;34.63;13.13;;;;;;;-3.87;69.22;99567.56;6069755;23;20029;-78
2021/12/31 06:07:15;;;;;;;30.20;11.93;;;;;;;-4.04;69.55;99531.22;6043656;23;20022;-79
2021/12/31 06:09:41;;;;;;;26.08;11.55;;;;;;;-3.86;69.15;99569.31;6022574;23;20022;-80
2021/12/31 06:12:08;;;;;;;28.67;11.52;;;;;;;-3.92;69.83;99557.19;6045889;23;20011;-78
2021/12/31 06:14:33;;;;;;;30.05;12.48;;;;;;;-3.92;69.33;99566.50;6045980;23;20018;-79
2021/12/31 06:17:06;;;;;;;27.13;11.57;;;;;;;-3.91;69.71;99563.16;6020550;23;20046;-79
2021/12/31 06:19:33;;;;;;;29.35;11.73;;;;;;;-3.88;69.88;99553.13;6071519;23;20048;-78
2021/12/31 06:21:59;;;;;;;24.85;11.25;;;;;;;-3.94;69.79;99539.31;6070145;23;20365;-79
2021/12/31 06:24:25;;;;;;;25.25;10.68;;;;;;;-3.70;69.88;99568.31;6069034;23;20038;-78
2021/12/31 06:26:50;;;;;;;24.10;9.48;;;;;;;-4.03;69.43;99522.78;6073271;23;20405;-79
2021/12/31 06:29:16;;;;;;;27.33;9.82;;;;;;;-3.87;69.31;99553.19;6068510;23;20019;-79
2021/12/31 06:31:42;;;;;;;21.55;9.75;;;;;;;-3.92;68.46;99558.88;6069497;23;20200;-78
2021/12/31 06:34:08;;;;;;;26.15;10.50;;;;;;;-3.92;69.55;99552.09;6020353;23;20341;-78
2021/12/31 06:36:34;;;;;;;27.30;10.95;;;;;;;-3.76;69.44;99568.91;6046135;23;20027;-78
2021/12/31 06:39:03;;;;;;;22.70;9.95;;;;;;;-3.70;69.61;99559.03;6058318;23;20069;-77
2021/12/31 06:41:30;;;;;;;25.33;10.95;;;;;;;-3.63;69.67;99561.03;6042433;23;20050;-79
2021/12/31 06:43:56;;;;;;;21.70;9.35;;;;;;;-3.57;70.08;99557.00;6039625;23;20099;-78
2021/12/31 06:46:21;;;;;;;19.23;9.70;;;;;;;-3.45;69.67;99560.13;6040942;23;20019;-79
2021/12/31 06:48:48;;;;;;;25.45;9.85;;;;;;;-3.49;69.28;99566.72;6039851;23;20087;-81
2021/12/31 06:51:14;;;;;;;21.35;8.77;;;;;;;-3.53;69.72;99566.53;6042206;23;20386;-79
2021/12/31 06:53:40;;;;;;;22.42;9.95;;;;;;;-3.60;69.60;99542.50;6043373;23;20019;-79
2021/12/31 06:56:06;;;;;;;24.15;9.85;;;;;;;-3.40;69.98;99563.69;6019468;23;20019;-79
2021/12/31 06:58:39;;;;;;;22.58;9.85;;;;;;;-3.50;69.62;99544.63;6060843;23;20019;-79
2021/12/31 07:01:05;;;;;;;22.65;9.32;;;;;;;-3.49;68.99;99545.50;6036340;23;20022;-78
2021/12/31 07:03:33;;;;;;;24.27;10.85;;;;;;;-3.53;69.45;99544.47;6054660;23;20104;-80
2021/12/31 07:05:59;;;;;;;20.38;8.98;;;;;;;-3.45;69.33;99554.13;6041926;23;20015;-80
2021/12/31 07:08:25;;;;;;;19.15;9.20;;;;;;;-3.64;69.22;99508.41;6017693;23;20101;-78
2021/12/31 07:10:51;;;;;;;20.00;9.02;;;;;;;-3.43;69.61;99543.25;6040748;23;20069;-78
2021/12/31 07:13:17;;;;;;;24.00;10.63;;;;;;;-3.64;69.49;99503.31;6041068;23;20063;-80
2021/12/31 07:15:48;;;;;;;23.00;8.32;;;;;;;-3.38;69.67;99535.78;6040792;23;20039;-79
2021/12/31 07:18:18;;;;;;;17.73;8.13;;;;;;;-3.25;69.38;99538.03;6039489;23;20019;-80
2021/12/31 07:20:45;;;;;;;18.75;8.52;;;;;;;-3.38;69.51;99503.56;5991223;23;20019;-79
2021/12/31 07:23:14;;;;;;;18.13;8.75;;;;;;;-3.12;69.49;99534.34;6015423;23;20094;-79
2021/12/31 07:25:43;;;;;;;17.13;8.98;;;;;;;-3.83;69.54;99411.78;6038404;23;20471;-78
2021/12/31 07:28:11;;;;;;;22.60;9.30;;;;;;;-3.10;69.17;99527.63;5994730;23;20051;-80
2021/12/31 07:30:38;;;;;;;19.80;8.43;;;;;;;-4.40;69.33;99313.63;6020594;23;20098;-80
2021/12/31 07:33:19;;;;;;;22.38;8.82;;;;;;;-3.12;69.34;99513.97;6045008;23;20023;-80
2021/12/31 07:36:07;;;;;;;22.73;9.13;;;;;;;-3.28;68.75;99486.16;6054237;23;20125;-79
2021/12/31 07:38:40;;;;;;;20.45;9.20;;;;;;;-3.22;68.86;99510.19;6002146;23;20043;-80
2021/12/31 07:41:06;;;;;;;18.70;8.48;;;;;;;-3.22;68.95;99514.41;6038477;23;20359;-79
2021/12/31 07:43:35;;;;;;;17.15;7.95;;;;;;;-3.25;69.38;99501.56;6039978;23;20019;-78
2021/12/31 07:46:02;;;;;;;18.85;8.75;;;;;;;-3.20;69.44;99512.81;6050776;23;20019;-79
2021/12/31 07:48:27;;;;;;;18.73;8.55;;;;;;;-3.29;69.17;99503.09;6057695;23;20034;-80
2021/12/31 07:50:54;;;;;;;19.35;8.52;;;;;;;-3.22;69.12;99506.78;6045175;23;20442;-78
2021/12/31 07:53:21;;;;;;;20.45;8.90;;;;;;;-3.98;68.93;99366.25;6044946;23;20054;-80
2021/12/31 07:55:50;;;;;;;19.75;8.85;;;;;;;-3.14;69.77;99505.41;6069574;23;20048;-80
2021/12/31 07:58:16;;;;;;;20.85;8.63;;;;;;;-3.21;68.85;99465.25;6044489;23;20019;-79
2021/12/31 08:00:42;;;;;;;20.52;8.55;;;;;;;-3.18;69.60;99457.72;6039647;23;20026;-80
2021/12/31 08:03:08;;;;;;;17.40;8.90;;;;;;;-3.03;69.41;99471.09;6014834;23;20054;-79
2021/12/31 08:05:34;;;;;;;21.00;8.93;;;;;;;-2.96;69.12;99473.84;6040600;23;20019;-80
2021/12/31 08:08:05;;;;;;;18.17;8.75;;;;;;;-2.98;69.65;99460.22;6014540;23;20030;-80
2021/12/31 08:10:32;;;;;;;19.10;8.10;;;;;;;-2.89;68.69;99461.47;6039245;23;20373;-80
2021/12/31 08:13:04;;;;;;;20.15;8.52;;;;;;;-2.78;68.95;99487.34;6016597;23;20034;-79
2021/12/31 08:15:30;;;;;;;;;;;;;;;-2.74;69.25;99479.00;6042705;23;20118;-79
2021/12/31 08:17:57;;;;;;;19.23;8.23;;;;;;;-2.66;68.59;99479.31;5992924;23;19952;-79
2021/12/31 08:20:24;;;;;;;22.10;9.23;;;;;;;-2.66;69.42;99464.03;6040097;23;20019;-80
2021/12/31 08:22:51;;;;;;;20.42;9.10;;;;;;;-2.77;69.43;99435.59;6041136;23;20023;-79
2021/12/31 08:25:27;;;;;;;19.02;8.88;;;;;;;-2.69;68.61;99447.75;6017188;23;20091;-78
2021/12/31 08:27:53;;;;;;;23.90;9.93;;;;;;;-2.93;68.92;99398.47;6040940;23;20019;-80
2021/12/31 08:30:23;;;;;;;22.52;9.52;;;;;;;-2.66;68.77;99451.31;6042480;23;20031;-79
2021/12/31 08:32:49;;;;;;;22.23;9.77;;;;;;;-2.97;69.24;99400.81;6041634;23;20521;-80
2021/12/31 08:35:14;;;;;;;22.17;9.40;;;;;;;-2.54;69.04;99442.38;6017616;23;20082;-80
2021/12/31 08:37:40;;;;;;;21.42;9.45;;;;;;;-2.51;69.20;99445.91;6043835;23;20059;-80
2021/12/31 08:40:09;;;;;;;19.75;8.88;;;;;;;-2.54;69.01;99438.16;6044021;23;20058;-78
2021/12/31 08:42:35;;;;;;;22.50;9.75;;;;;;;-2.44;69.20;99436.84;6043758;23;20488;-79
2021/12/31 08:45:04;;;;;;;22.42;9.30;;;;;;;-2.73;68.88;99383.94;6018142;23;20037;-79
2021/12/31 08:47:30;;;;;;;22.80;10.10;;;;;;;-2.45;68.99;99422.34;6042526;23;20023;-78
2021/12/31 08:49:56;;;;;;;19.08;9.18;;;;;;;-2.36;69.66;99424.38;6064710;23;20050;-79
2021/12/31 08:52:23;;;;;;;20.63;8.75;;;;;;;-2.34;69.11;99425.28;6042800;23;20078;-80
2021/12/31 08:54:50;;;;;;;21.33;9.35;;;;;;;-2.58;68.84;99388.75;6048343;23;20082;-79
2021/12/31 08:57:16;;;;;;;20.92;8.77;;;;;;;-2.63;68.94;99377.50;6035736;23;20007;-79
2021/12/31 08:59:42;;;;;;;20.48;8.65;;;;;;;-2.43;69.21;99416.47;6042537;23;20027;-80
2021/12/31 09:02:09;;;;;;;21.08;9.02;;;;;;;-2.63;69.36;99361.38;6017909;23;20042;-80
2021/12/31 09:04:35;;;;;;;18.73;8.43;;;;;;;-2.38;69.25;99380.09;6065692;23;20019;-78
2021/12/31 09:07:00;;;;;;;21.75;9.23;;;;;;;-2.13;68.95;99398.03;6041073;23;20023;-79
2021/12/31 09:09:30;;;;;;;19.30;8.27;;;;;;;-2.29;68.66;99372.78;6044916;23;20110;-80
2021/12/31 09:11:56;;;;;;;20.73;9.80;;;;;;;-2.27;68.54;99401.75;6043996;23;20019;-79
2021/12/31 09:14:23;;;;;;;18.85;8.93;;;;;;;-2.45;68.96;99379.03;6041485;23;20029;-80
2021/12/31 09:16:50;;;;;;;21.77;8.98;;;;;;;-2.24;68.46;99395.91;6040599;23;20023;-79
2021/12/31 09:19:17;;;;;;;21.17;8.93;;;;;;;-2.48;68.87;99341.53;6039164;23;20106;-80
2021/12/31 09:21:43;;;;;;;24.83;10.18;;;;;;;-2.78;68.70;99314.16;6040147;23;20034;-80
2021/12/31 09:24:09;;;;;;;23.02;9.43;;;;;;;-2.78;68.72;99313.25;6044109;23;20038;-80
2021/12/31 09:26:35;;;;;;;24.40;9.60;;;;;;;-2.26;69.09;99370.34;6018671;23;20023;-81
2021/12/31 09:29:04;;;;;;;21.48;9.80;;;;;;;-2.22;69.16;99361.16;5996052;23;20098;-81
2021/12/31 09:31:30;;;;;;;20.80;8.50;;;;;;;-1.96;68.64;99382.44;6017123;23;20023;-82
2021/12/31 09:33:56;;;;;;;21.33;9.35;;;;;;;-2.04;67.81;99382.19;6016956;23;20114;-80
2021/12/31 09:36:25;;;;;;;19.55;8.57;;;;;;;-2.47;68.18;99327.97;6063012;23;20126;-79
2021/12/31 09:38:53;;;;;;;23.63;9.07;;;;;;;-2.40;68.97;99325.66;6044499;23;20102;-79
2021/12/31 09:41:19;;;;;;;18.30;8.30;;;;;;;-2.05;68.45;99365.16;6044929;23;20070;-80
2021/12/31 09:43:50;;;;;;;20.75;9.40;;;;;;;-2.07;68.69;99348.91;6045524;23;20091;-78
2021/12/31 09:46:18;;;;;;;19.33;8.80;;;;;;;-2.14;68.60;99322.34;6003956;23;20105;-78
2021/12/31 09:48:44;;;;;;;18.40;8.57;;;;;;;-2.07;67.26;99361.69;6047927;23;20125;-79
2021/12/31 09:51:13;;;;;;;19.85;9.38;;;;;;;-2.04;68.10;99368.56;6072521;23;20019;-79
2021/12/31 09:53:39;;;;;;;21.65;9.13;;;;;;;-2.01;68.75;99359.34;6045761;23;20086;-80
2021/12/31 09:56:09;;;;;;;21.02;9.35;;;;;;;-2.21;68.09;99320.41;6046733;23;20015;-78
2021/12/31 09:58:36;;;;;;;21.25;9.98;;;;;;;-2.22;68.83;99323.75;6053282;23;20465;-79
2021/12/31 10:01:07;;;;;;;21.23;8.70;;;;;;;-2.02;68.80;99336.31;6051014;23;20457;-80
2021/12/31 10:03:35;;;;;;;16.13;7.30;;;;;;;-2.40;67.94;99270.44;6077711;23;20023;-78
2021/12/31 10:06:11;;;;;;;19.30;8.27;;;;;;;-2.05;68.01;99343.88;6088461;23;20019;-80
2021/12/31 10:08:42;;;;;;;24.00;8.88;;;;;;;-2.08;68.92;99319.13;6023387;23;20026;-80
2021/12/31 10:11:20;;;;;;;20.63;8.63;;;;;;;-1.74;68.97;99332.16;6021436;23;20449;-80
2021/12/31 10:13:52;;;;;;;21.70;9.73;;;;;;;-1.61;69.03;99334.28;6046135;23;20067;-79
2021/12/31 10:16:44;;;;;;;21.63;8.90;;;;;;;-1.72;68.34;99328.84;6060893;23;20041;-77
2021/12/31 10:19:13;;;;;;;18.85;9.40;;;;;;;-2.02;68.15;99267.47;6058249;23;20029;-79
2021/12/31 10:21:50;;;;;;;20.63;9.23;;;;;;;-2.47;68.04;99176.78;6094488;23;20023;-79
2021/12/31 10:24:26;;;;;;;24.33;9.73;;;;;;;-2.09;68.25;99252.78;6110031;23;20078;-78
2021/12/31 10:26:57;;;;;;;20.15;9.32;;;;;;;-1.70;68.02;99323.78;6075683;23;20018;-78
2021/12/31 10:29:25;;;;;;;22.25;9.38;;;;;;;-1.70;68.36;99326.34;6103717;23;20045;-79
2021/12/31 10:31:52;;;;;;;20.02;9.18;;;;;;;-1.65;68.75;99329.91;6121668;23;20479;-79
2021/12/31 10:34:41;;;;;;;24.55;9.60;;;;;;;-1.54;68.37;99327.69;6092861;23;20160;-80
2021/12/31 10:37:19;;;;;;;23.05;9.38;;;;;;;-2.03;68.63;99232.59;6109148;23;20018;-78
2021/12/31 10:39:55;;;;;;;21.75;9.38;;;;;;;-1.41;68.64;99342.59;6086524;23;20038;-80
2021/12/31 10:42:30;;;;;;;25.05;10.05;;;;;;;-1.59;68.48;99275.66;6110086;23;20034;-79
2021/12/31 10:44:57;;;;;;;24.05;9.88;;;;;;;-1.42;68.37;99294.91;6122918;23;20022;-78
2021/12/31 10:47:42;;;;;;;20.25;9.18;;;;;;;-1.38;67.66;99322.28;6120113;23;20029;-79
2021/12/31 10:50:18;;;;;;;24.63;10.63;;;;;;;-1.45;68.38;99309.28;6073969;23;20014;-80
2021/12/31 10:53:02;;;;;;;21.13;9.15;;;;;;;-1.44;67.90;99309.31;6074834;23;20336;-79
2021/12/31 10:55:30;;;;;;;22.23;9.95;;;;;;;-1.70;67.80;99272.78;6101180;23;20024;-79
2021/12/31 10:58:03;;;;;;;35.88;16.85;;;;;;;-1.46;68.82;99303.28;6103767;23;20050;-79
2021/12/31 11:00:39;;;;;;;39.58;15.65;;;;;;;-1.48;68.14;99293.88;6081173;23;20023;-80
2021/12/31 11:03:06;;;;;;;25.13;11.10;;;;;;;-1.56;68.27;99273.22;6075007;23;20045;-78
2021/12/31 11:05:36;;;;;;;25.08;10.13;;;;;;;-1.66;67.60;99256.75;6096565;23;20049;-81
2021/12/31 11:08:13;;;;;;;23.05;9.25;;;;;;;-1.65;68.24;99257.59;6047970;23;20025;-80
2021/12/31 11:10:40;;;;;;;23.08;10.32;;;;;;;-1.53;68.15;99271.59;6098253;23;20015;-80
2021/12/31 11:13:15;;;;;;;23.50;10.48;;;;;;;-1.62;68.10;99250.03;6092909;23;20023;-77
2021/12/31 11:15:46;;;;;;;24.02;10.50;;;;;;;-1.46;67.89;99285.44;6092134;23;20126;-80
2021/12/31 11:18:13;;;;;;;27.60;10.00;;;;;;;-1.89;67.20;99228.81;6073474;23;20018;-80
2021/12/31 11:20:47;;;;;;;22.40;10.15;;;;;;;-1.76;68.20;99265.75;6097904;23;20018;-79
2021/12/31 11:23:13;;;;;;;23.50;9.80;;;;;;;-1.92;67.62;99259.31;6122379;23;20034;-80
2021/12/31 11:26:04;;;;;;;22.63;10.57;;;;;;;-1.87;67.70;99267.13;6122172;23;20448;-80
2021/12/31 11:28:39;;;;;;;25.63;10.63;;;;;;;-1.82;68.37;99263.88;6051174;23;20018;-79
2021/12/31 11:31:16;;;;;;;25.70;10.05;;;;;;;-1.88;67.49;99263.72;6121163;23;20014;-80